Weldon, California
Current Conditions -  °F | °C
As of 10:56 PM on Thursday 18 Dec 2014 (Local Time) from KNID Reporting Station
Clear Clear  
Wind Chill: 40°   Ceiling: Unl
Heat Index: 40°   Visibility: 10mi
Dew Point: 37°   Wind: 3mph
Humidity: 89%   Direction: 190°S
Pressure: 30.24"   Gusts: NA
Location:  35.67°N, 118.29°W
Report Text: KNID 190656Z AUTO 19003KT 10SM CLR 04/03 A3024 RMK AO2 SLP246 T00440028 $
Loading
Personal Weather Stations






























Interactive Weather Map New forecast layout! Learn more

10-Day Weather Forecast

Advertisements
Track Severe Weather on mobile